Time;durP1;ratioP1;P1;durP2;ratioP2;P2;SDS_P1;SDS_P2;PMS_P1;PMS_P2;Temp;Humidity;BMP_temperature;BMP_pressure;BME280_temperature;BME280_humidity;BME280_pressure;Samples;Min_cycle;Max_cycle;Signal;HPM_P1;HPM_P2
2023/05/21 00:00:21;;;;;;;;;;;19.20;44.10;;;18.21;44.14;101637.13;12248106;19;19919;-86
2023/05/21 00:04:24;;;;;;;;;;;19.10;44.40;;;18.20;44.28;101638.94;12245295;19;19915;-86
2023/05/21 00:08:26;;;;;;;;;;;19.10;44.50;;;18.10;44.34;101616.78;12247402;19;19919;-86
2023/05/21 00:12:27;;;;;;;;;;;19.00;44.30;;;18.06;44.44;101617.94;12258148;19;19966;-87
2023/05/21 00:16:29;;;;;;;;;;;19.00;44.30;;;17.90;44.23;101594.41;12255770;19;19919;-87
2023/05/21 00:20:34;;;;;;;;;;;19.00;44.50;;;18.10;44.30;101622.91;12256040;19;19922;-86
2023/05/21 00:24:36;;;;;;;;;;;19.00;45.00;;;17.87;44.49;101605.22;12255182;19;19972;-86
2023/05/21 00:28:37;;;;;;;;;;;19.00;44.80;;;18.00;44.43;101610.47;12257124;19;19918;-86
2023/05/21 00:32:39;;;;;;;;;;;18.90;44.50;;;18.00;44.39;101606.00;12255362;19;19915;-86
2023/05/21 00:36:44;;;;;;;;;;;18.90;44.60;;;18.02;44.42;101622.63;12253061;19;19929;-87
2023/05/21 00:40:45;;;;;;;;;;;18.90;44.60;;;17.76;44.69;101589.25;12256614;19;19929;-86
2023/05/21 00:44:47;;;;;;;;;;;18.80;44.60;;;17.83;44.70;101601.94;12253116;19;19971;-87
2023/05/21 00:48:49;;;;;;;;;;;18.90;44.70;;;17.92;44.82;101614.50;12252768;19;19914;-87
2023/05/21 00:52:51;;;;;;;;;;;18.80;44.60;;;17.85;44.67;101596.56;12255747;19;19922;-86
2023/05/21 00:56:53;;;;;;;;;;;18.80;44.80;;;17.66;44.83;101563.50;12249889;19;20330;-87
2023/05/21 01:00:55;;;;;;;;;;;18.80;45.10;;;17.79;44.99;101581.13;12254837;19;20005;-87
2023/05/21 01:04:56;;;;;;;;;;;18.70;44.70;;;17.78;44.75;101588.19;12252779;19;19923;-86
2023/05/21 01:08:59;;;;;;;;;;;18.80;45.10;;;17.56;45.12;101548.44;12253401;19;19946;-86
2023/05/21 01:13:00;;;;;;;;;;;18.70;45.00;;;17.68;44.97;101576.59;12254905;19;19919;-86
2023/05/21 01:17:04;;;;;;;;;;;18.70;45.00;;;17.55;44.78;101552.88;12251341;19;19980;-86
2023/05/21 01:21:08;;;;;;;;;;;18.70;45.10;;;17.59;45.11;101561.41;12251962;19;19971;-86
2023/05/21 01:25:10;;;;;;;;;;;18.60;44.90;;;17.53;44.97;101554.78;12251874;19;19923;-86
2023/05/21 01:29:13;;;;;;;;;;;18.60;45.30;;;17.49;45.08;101553.28;12254516;19;19923;-86
2023/05/21 01:33:27;;;;;;;;;;;18.60;45.10;;;17.60;45.15;101571.00;12250840;19;20326;-86
2023/05/21 01:37:43;;;;;;;;;;;18.60;45.40;;;17.66;44.95;101589.06;12250943;19;19978;-86
2023/05/21 01:41:46;;;;;;;;;;;18.60;45.10;;;17.65;45.27;101585.56;12254127;19;19919;-86
2023/05/21 01:45:50;;;;;;;;;;;18.60;45.10;;;17.66;45.26;101586.41;12247522;19;19919;-87
2023/05/21 01:49:52;;;;;;;;;;;18.60;45.00;;;17.59;45.16;101572.81;12250977;19;19974;-86
2023/05/21 01:53:54;;;;;;;;;;;18.60;45.30;;;17.43;45.38;101551.09;12249364;19;19982;-87
2023/05/21 01:57:56;;;;;;;;;;;18.60;45.10;;;17.59;45.25;101579.91;12250917;19;19915;-87
2023/05/21 02:01:58;;;;;;;;;;;18.50;45.10;;;17.59;45.24;101588.66;12251369;19;20275;-86
2023/05/21 02:05:59;;;;;;;;;;;18.50;45.00;;;17.30;45.49;101542.34;12249095;19;19926;-86
2023/05/21 02:10:02;;;;;;;;;;;18.50;45.10;;;17.47;45.24;101581.59;12252042;19;19919;-87
2023/05/21 02:14:04;;;;;;;;;;;18.40;45.00;;;17.46;45.29;101580.75;12248157;19;20260;-87
2023/05/21 02:18:05;;;;;;;;;;;18.40;45.00;;;17.43;45.38;101564.28;12249490;19;20241;-86
2023/05/21 02:22:07;;;;;;;;;;;18.40;45.50;;;17.31;45.30;101557.22;12251709;19;19944;-87
2023/05/21 02:26:09;;;;;;;;;;;18.40;45.30;;;17.33;45.46;101563.25;12248234;19;19940;-87
2023/05/21 02:30:12;;;;;;;;;;;18.30;45.20;;;17.17;45.53;101548.47;12252406;19;19915;-87
2023/05/21 02:34:13;;;;;;;;;;;18.20;45.70;;;17.28;45.41;101568.84;12249456;19;19928;-87
2023/05/21 02:38:18;;;;;;;;;;;18.20;45.60;;;16.90;45.56;101511.66;12248490;19;19911;-86
2023/05/21 02:42:23;;;;;;;;;;;18.20;45.30;;;17.13;45.79;101564.66;12250901;19;19918;-86
2023/05/21 02:46:25;;;;;;;;;;;18.10;45.30;;;17.07;45.64;101549.25;12246921;19;19918;-86
2023/05/21 02:50:28;;;;;;;;;;;18.10;45.60;;;17.12;45.59;101558.53;12250843;19;19911;-86
2023/05/21 02:54:32;;;;;;;;;;;18.00;45.60;;;17.05;45.55;101551.13;12247512;19;19936;-86
2023/05/21 02:58:34;;;;;;;;;;;18.00;45.50;;;16.92;45.92;101532.66;12247101;19;19974;-86
2023/05/21 03:02:36;;;;;;;;;;;18.10;45.70;;;16.87;45.66;101521.59;12249397;19;19911;-86
2023/05/21 03:06:37;;;;;;;;;;;18.10;45.50;;;17.08;45.91;101566.75;12247877;19;19987;-87
2023/05/21 03:10:39;;;;;;;;;;;18.00;45.50;;;17.04;45.79;101563.50;12248627;19;19914;-86
2023/05/21 03:14:42;;;;;;;;;;;18.00;45.60;;;16.97;45.92;101549.88;12246812;19;19915;-87
2023/05/21 03:18:44;;;;;;;;;;;18.00;45.70;;;17.02;45.74;101554.84;12244494;19;19922;-87
2023/05/21 03:22:47;;;;;;;;;;;18.00;45.70;;;17.01;46.04;101559.28;12246430;19;19918;-87
2023/05/21 03:26:49;;;;;;;;;;;17.90;46.20;;;16.97;46.05;101567.50;12243551;19;20008;-87
2023/05/21 03:30:52;;;;;;;;;;;17.90;45.90;;;16.86;46.08;101549.75;12247335;19;19933;-87
2023/05/21 03:35:12;;;;;;;;;;;17.90;46.20;;;16.84;45.97;101545.53;12246599;19;19911;-87
2023/05/21 03:39:13;;;;;;;;;;;17.90;46.30;;;16.81;45.98;101539.53;12248248;19;19974;-87
2023/05/21 03:43:15;;;;;;;;;;;17.80;45.90;;;16.88;46.20;101558.44;12248319;19;19907;-86
2023/05/21 03:47:17;;;;;;;;;;;17.90;46.30;;;16.88;46.33;101557.59;12256996;19;19926;-87
2023/05/21 03:51:19;;;;;;;;;;;17.80;46.30;;;16.78;46.25;101539.72;12259773;19;19911;-86
2023/05/21 03:55:21;;;;;;;;;;;17.80;46.10;;;16.80;46.30;101553.66;12255358;19;19923;-87
2023/05/21 03:59:22;;;;;;;;;;;17.80;46.40;;;16.85;46.20;101566.56;12258288;19;19923;-86
2023/05/21 04:03:24;;;;;;;;;;;17.90;46.80;;;16.93;46.15;101564.25;12259935;19;19970;-87
2023/05/21 04:07:26;;;;;;;;;;;17.90;46.70;;;16.99;46.44;101566.44;12258329;19;20334;-87
2023/05/21 04:11:27;;;;;;;;;;;17.90;47.30;;;16.87;46.38;101534.78;12261374;19;19930;-87
2023/05/21 04:15:29;;;;;;;;;;;17.90;46.80;;;16.93;46.67;101545.78;12256068;19;19987;-87
2023/05/21 04:19:31;;;;;;;;;;;18.00;46.90;;;16.93;46.59;101542.25;12259344;19;20329;-87
2023/05/21 04:23:35;;;;;;;;;;;18.00;46.80;;;17.02;46.57;101546.91;12259445;19;19930;-87
2023/05/21 04:27:42;;;;;;;;;;;18.10;46.80;;;17.17;46.71;101568.75;12260407;19;20257;-87
2023/05/21 04:31:44;;;;;;;;;;;18.10;47.10;;;17.27;46.81;101575.09;12259851;19;19978;-87
2023/05/21 04:35:52;;;;;;;;;;;18.20;49.10;;;17.20;46.58;101550.94;12253067;19;19933;-87
2023/05/21 04:39:56;;;;;;;;;;;18.30;48.00;;;17.36;46.88;101570.94;12256764;19;19965;-87
2023/05/21 04:43:59;;;;;;;;;;;18.30;48.80;;;17.34;46.76;101549.13;12254176;19;19922;-87
2023/05/21 04:48:06;;;;;;;;;;;18.40;48.30;;;17.49;46.98;101563.84;12257017;19;19910;-87
2023/05/21 04:52:08;;;;;;;;;;;18.50;48.00;;;17.50;46.85;101552.34;12256377;19;19914;-87
2023/05/21 04:56:09;;;;;;;;;;;18.60;49.20;;;17.47;46.88;101528.78;12251779;19;19923;-87
2023/05/21 05:00:12;;;;;;;;;;;18.70;48.80;;;17.66;47.07;101550.31;12256807;19;19915;-87
2023/05/21 05:04:17;;;;;;;;;;;18.80;49.10;;;17.91;47.24;101559.97;12254998;19;19932;-87
2023/05/21 05:08:18;;;;;;;;;;;18.90;49.50;;;17.95;47.24;101554.44;12257238;19;19926;-87
2023/05/21 05:12:19;;;;;;;;;;;19.00;49.40;;;18.16;47.21;101586.41;12258318;19;19919;-87
2023/05/21 05:16:24;;;;;;;;;;;19.10;49.30;;;18.17;47.44;101561.63;12257465;19;19919;-87
2023/05/21 05:20:26;;;;;;;;;;;19.30;50.00;;;18.21;47.09;101552.53;12259057;19;19939;-87
2023/05/21 05:24:28;;;;;;;;;;;19.40;48.80;;;18.36;47.19;101561.94;12254576;19;19915;-87
2023/05/21 05:28:29;;;;;;;;;;;19.50;49.10;;;18.57;47.38;101583.31;12254979;19;20457;-87
2023/05/21 05:32:30;;;;;;;;;;;19.60;49.80;;;18.55;47.35;101570.22;12257257;19;19951;-88
2023/05/21 05:36:32;;;;;;;;;;;19.70;48.80;;;18.65;47.39;101565.06;12253368;19;19919;-87
2023/05/21 05:40:34;;;;;;;;;;;19.80;49.20;;;18.83;47.61;101583.19;12258770;19;19922;-87
2023/05/21 05:44:35;;;;;;;;;;;19.90;49.50;;;18.89;47.34;101578.25;12258078;19;19922;-87
2023/05/21 05:48:37;;;;;;;;;;;20.00;48.70;;;18.97;47.57;101575.84;12261360;19;19925;-87
2023/05/21 05:52:39;;;;;;;;;;;20.10;48.80;;;19.12;47.51;101572.97;12258848;19;19919;-87
2023/05/21 05:56:40;;;;;;;;;;;20.20;48.90;;;19.20;47.51;101567.94;12254910;19;19915;-87
2023/05/21 06:00:41;;;;;;;;;;;20.30;48.40;;;19.25;47.76;101552.50;12255322;19;19911;-89
2023/05/21 06:04:43;;;;;;;;;;;20.40;49.20;;;19.38;47.89;101555.88;12253548;19;19915;-85
2023/05/21 06:08:45;;;;;;;;;;;20.60;49.90;;;19.58;47.76;101569.38;12254371;19;19911;-87
2023/05/21 06:12:47;;;;;;;;;;;20.70;49.00;;;19.60;47.90;101554.19;12253365;19;19915;-86
2023/05/21 06:16:49;;;;;;;;;;;20.80;48.80;;;19.78;47.55;101559.84;12247977;19;19923;-85
2023/05/21 06:20:51;;;;;;;;;;;20.90;48.30;;;19.86;47.93;101563.56;12254066;19;19915;-86
2023/05/21 06:24:53;;;;;;;;;;;21.00;48.40;;;19.87;47.99;101545.84;12243852;19;19926;-86
2023/05/21 06:28:55;;;;;;;;;;;21.10;48.70;;;20.02;47.76;101557.00;12256443;19;19954;-85
2023/05/21 06:32:58;;;;;;;;;;;21.10;48.60;;;20.12;47.62;101550.00;12252854;19;19940;-84
2023/05/21 06:37:00;;;;;;;;;;;21.20;48.80;;;20.11;47.93;101538.50;12240170;19;19962;-87
2023/05/21 06:41:02;;;;;;;;;;;21.30;49.80;;;20.23;47.77;101549.94;12252416;19;19915;-86
2023/05/21 06:45:36;;;;;;;;;;;21.40;48.40;;;20.22;47.66;101527.00;12246970;19;19918;-85
2023/05/21 06:49:49;;;;;;;;;;;21.50;49.40;;;20.42;47.97;101545.75;12251346;19;19947;-85
2023/05/21 06:53:51;;;;;;;;;;;21.50;48.70;;;20.50;47.73;101540.66;12249118;19;19911;-84
2023/05/21 06:57:52;;;;;;;;;;;21.60;48.70;;;20.52;47.81;101522.75;12248357;19;20326;-85
2023/05/21 07:01:54;;;;;;;;;;;21.70;49.80;;;20.65;47.76;101542.00;12250777;19;20634;-86
2023/05/21 07:05:56;;;;;;;;;;;21.80;48.40;;;20.51;47.97;101506.00;12250287;19;19927;-85
2023/05/21 07:09:58;;;;;;;;;;;21.80;48.30;;;20.81;47.78;101538.91;12253344;19;19919;-85
2023/05/21 07:14:00;;;;;;;;;;;22.00;48.30;;;20.97;47.77;101557.84;12246594;19;19925;-86
2023/05/21 07:18:05;;;;;;;;;;;22.10;49.20;;;21.06;47.79;101561.53;12245030;19;19927;-86
2023/05/21 07:22:07;;;;;;;;;;;22.10;48.10;;;21.12;47.87;101566.31;12261543;19;19932;-86
2023/05/21 07:26:10;;;;;;;;;;;22.20;48.30;;;20.88;47.72;101526.78;12255027;19;19911;-85
2023/05/21 07:30:13;;;;;;;;;;;22.30;48.50;;;21.04;47.82;101523.66;12259610;19;19940;-87
2023/05/21 07:34:15;;;;;;;;;;;22.30;49.20;;;21.27;47.67;101539.38;12253069;19;19939;-89
2023/05/21 07:38:17;;;;;;;;;;;22.40;48.50;;;21.40;47.80;101542.69;12254549;19;19944;-88
2023/05/21 07:42:19;;;;;;;;;;;22.50;49.50;;;21.61;47.81;101551.41;12258768;19;19926;-87
2023/05/21 07:46:21;;;;;;;;;;;22.70;50.20;;;21.71;47.81;101522.19;12256516;19;19915;-88
2023/05/21 07:50:26;;;;;;;;;;;22.80;49.70;;;21.91;47.99;101532.84;12257636;19;19929;-88
2023/05/21 07:54:29;;;;;;;;;;;23.10;48.80;;;21.90;47.93;101505.44;12252879;19;19919;-87
2023/05/21 07:58:33;;;;;;;;;;;23.20;49.10;;;22.36;47.77;101533.16;12254225;19;20357;-84
2023/05/21 08:02:35;;;;;;;;;;;23.50;48.50;;;22.58;47.82;101532.00;12258751;19;19927;-85
2023/05/21 08:06:37;;;;;;;;;;;23.70;48.20;;;22.87;47.92;101542.59;12254665;19;20241;-84
2023/05/21 08:10:39;;;;;;;;;;;23.90;49.30;;;23.06;48.08;101535.53;12258693;19;20295;-85
2023/05/21 08:14:41;;;;;;;;;;;24.10;48.90;;;23.19;47.95;101520.88;12257114;19;19921;-83
2023/05/21 08:18:44;;;;;;;;;;;24.30;48.30;;;23.41;47.71;101527.66;12248213;19;19921;-84
2023/05/21 08:22:47;;;;;;;;;;;24.50;48.00;;;23.58;48.12;101520.66;12253354;19;19911;-84
2023/05/21 08:26:49;;;;;;;;;;;24.80;47.90;;;23.85;47.89;101527.81;12252460;19;19918;-85
2023/05/21 08:30:51;;;;;;;;;;;25.00;47.70;;;23.89;47.64;101504.31;12252127;19;20253;-85
2023/05/21 08:34:52;;;;;;;;;;;25.20;47.60;;;24.27;47.78;101532.50;12251877;19;19933;-85
2023/05/21 08:39:14;;;;;;;;;;;25.40;47.00;;;24.41;47.83;101523.13;12252057;19;19918;-85
2023/05/21 08:43:18;;;;;;;;;;;25.60;47.10;;;24.65;47.52;101530.47;12254981;19;19919;-85
2023/05/21 08:47:25;;;;;;;;;;;25.80;46.80;;;24.65;47.22;101501.09;12253752;19;19915;-85
2023/05/21 08:51:27;;;;;;;;;;;26.00;46.80;;;25.02;47.17;101529.34;12255494;19;19944;-86
2023/05/21 08:55:31;;;;;;;;;;;26.10;46.60;;;25.19;47.22;101534.81;12250054;19;20410;-85
2023/05/21 08:59:34;;;;;;;;;;;26.30;46.10;;;25.20;47.27;101501.75;12253677;19;20254;-84
2023/05/21 09:03:39;;;;;;;;;;;26.50;45.70;;;25.49;47.23;101525.38;12253694;19;19927;-86
2023/05/21 09:07:49;;;;;;;;;;;26.60;45.90;;;25.58;47.13;101511.03;12253567;19;19919;-87
2023/05/21 09:12:02;;;;;;;;;;;26.80;44.60;;;25.76;46.76;101511.75;12254630;19;19940;-86
2023/05/21 09:16:05;;;;;;;;;;;26.90;45.00;;;25.86;46.92;101506.25;12247915;19;20556;-84
2023/05/21 09:20:17;;;;;;;;;;;27.10;43.60;;;26.03;46.78;101509.78;12253871;19;19978;-87
2023/05/21 09:24:29;;;;;;;;;;;27.20;44.50;;;26.22;46.95;101514.81;12251198;19;19906;-88
2023/05/21 09:28:34;;;;;;;;;;;27.30;44.80;;;26.36;46.32;101509.78;12250246;19;19919;-84
2023/05/21 09:32:37;;;;;;;;;;;27.50;44.20;;;26.52;46.32;101520.50;12251439;19;20408;-85
2023/05/21 09:36:39;;;;;;;;;;;27.60;44.00;;;26.58;46.32;101493.03;12248214;19;20354;-86
2023/05/21 09:40:45;;;;;;;;;;;27.80;44.60;;;26.73;46.19;101486.94;12252611;19;19943;-85
2023/05/21 09:44:47;;;;;;;;;;;27.90;42.20;;;26.93;46.04;101502.47;12247497;19;19923;-84
2023/05/21 09:48:48;;;;;;;;;;;28.10;42.00;;;27.07;45.93;101498.22;12252088;19;19915;-84
2023/05/21 09:52:54;;;;;;;;;;;28.20;42.70;;;27.19;45.76;101493.31;12246549;19;19911;-84
2023/05/21 09:56:55;;;;;;;;;;;28.30;41.60;;;27.31;46.07;101494.63;12247846;19;20008;-85
2023/05/21 10:00:57;;;;;;;;;;;28.40;42.90;;;27.48;45.54;101497.19;12251127;19;19926;-85
2023/05/21 10:04:59;;;;;;;;;;;28.50;42.60;;;27.51;45.38;101470.00;12248960;19;20374;-83
2023/05/21 10:09:06;;;;;;;;;;;28.70;40.70;;;27.68;45.23;101490.38;12251261;19;20001;-84
2023/05/21 10:13:09;;;;;;;;;;;28.70;41.40;;;27.72;44.97;101475.56;12250874;19;19922;-84
2023/05/21 10:17:11;;;;;;;;;;;28.80;40.90;;;27.86;44.78;101478.53;12249007;19;19938;-84
2023/05/21 10:21:14;;;;;;;;;;;28.90;41.00;;;27.95;44.44;101474.75;12251900;19;19936;-84
2023/05/21 10:25:16;;;;;;;;;;;29.00;41.20;;;28.02;44.60;101467.63;12251663;19;19927;-84
2023/05/21 10:29:18;;;;;;;;;;;29.10;40.60;;;28.11;44.68;101458.50;12251551;19;19944;-86
2023/05/21 10:33:21;;;;;;;;;;;29.20;41.20;;;28.12;44.61;101438.69;12249870;19;20415;-87
2023/05/21 10:37:27;;;;;;;;;;;29.30;39.70;;;28.24;43.80;101464.06;12246964;19;19962;-87
2023/05/21 10:41:34;;;;;;;;;;;29.30;41.20;;;28.31;43.98;101461.50;12247598;19;20373;-86
2023/05/21 10:46:19;;;;;;;;;;;29.30;40.30;;;28.36;43.89;101455.56;12245423;19;19919;-86
2023/05/21 10:50:43;;;;;;;;;;;29.50;40.20;;;28.48;43.76;101454.13;12249649;19;20266;-86
2023/05/21 10:54:53;;;;;;;;;;;29.50;40.80;;;28.59;43.34;101458.19;12244318;19;19923;-86
2023/05/21 10:59:20;;;;;;;;;;;29.60;40.80;;;28.72;43.57;101453.00;12247116;19;20020;-86
2023/05/21 11:03:22;;;;;;;;;;;29.70;37.80;;;28.80;43.49;101441.31;12247496;19;20385;-85
2023/05/21 11:07:56;;;;;;;;;;;29.80;40.40;;;28.97;42.98;101455.38;12247792;19;20276;-87
2023/05/21 11:11:59;;;;;;;;;;;29.90;38.90;;;29.06;42.88;101441.69;12246802;19;19933;-87
2023/05/21 11:16:04;;;;;;;;;;;30.00;39.80;;;29.07;43.20;101421.81;12243540;19;19970;-86
2023/05/21 11:20:07;;;;;;;;;;;30.20;39.40;;;29.19;43.23;101421.31;12245330;19;19933;-85
2023/05/21 11:24:17;;;;;;;;;;;30.20;40.10;;;29.38;43.03;101439.56;12245050;19;19919;-86
2023/05/21 11:28:31;;;;;;;;;;;30.40;38.60;;;29.50;42.74;101438.00;12244442;19;19915;-87
2023/05/21 11:32:38;;;;;;;;;;;30.50;39.80;;;29.62;42.58;101429.41;12242711;19;19923;-85
2023/05/21 11:36:43;;;;;;;;;;;30.60;40.30;;;29.71;42.53;101428.28;12230447;19;19971;-86
2023/05/21 11:40:55;;;;;;;;;;;30.70;39.60;;;29.72;41.95;101427.25;12240494;19;20561;-85
2023/05/21 11:44:58;;;;;;;;;;;30.80;38.50;;;29.72;42.21;101421.88;12239002;19;19914;-86
2023/05/21 11:48:59;;;;;;;;;;;30.80;38.20;;;29.68;42.12;101420.59;12241422;19;19987;-85
2023/05/21 11:53:01;;;;;;;;;;;30.80;39.60;;;29.72;42.13;101422.69;12240760;19;19919;-86
2023/05/21 11:57:06;;;;;;;;;;;30.80;40.20;;;29.78;41.98;101429.16;12238295;19;19919;-86
2023/05/21 12:01:07;;;;;;;;;;;30.80;39.50;;;29.79;41.48;101425.47;12243971;19;20359;-86
2023/05/21 12:05:09;;;;;;;;;;;30.80;38.90;;;29.57;41.63;101400.41;12245678;19;19915;-86
2023/05/21 12:09:11;;;;;;;;;;;30.70;39.70;;;29.75;41.75;101429.56;12257929;19;20627;-86
2023/05/21 12:13:13;;;;;;;;;;;30.70;39.10;;;29.65;41.53;101400.28;12259111;19;19950;-86
2023/05/21 12:17:16;;;;;;;;;;;30.70;38.90;;;29.85;41.32;101435.44;12251857;19;19926;-86
2023/05/21 12:21:18;;;;;;;;;;;30.80;39.50;;;29.75;41.51;101408.00;12258965;19;19911;-86
2023/05/21 12:25:19;;;;;;;;;;;30.80;39.70;;;29.98;41.15;101437.41;12256820;19;19927;-86
2023/05/21 12:29:22;;;;;;;;;;;30.80;39.90;;;30.02;41.09;101435.97;12257852;19;19923;-86
2023/05/21 12:33:24;;;;;;;;;;;30.90;39.80;;;29.89;41.17;101403.56;12254987;19;19952;-86
2023/05/21 12:37:34;;;;;;;;;;;31.00;39.40;;;30.17;40.85;101419.72;12253747;19;19918;-85
2023/05/21 12:41:35;;;;;;;;;;;31.00;39.40;;;30.20;40.76;101414.78;12256699;19;20271;-85
2023/05/21 12:45:38;;;;;;;;;;;31.10;39.20;;;30.25;40.65;101411.53;12248192;19;20351;-86
2023/05/21 12:49:40;;;;;;;;;;;31.20;38.10;;;30.33;40.71;101430.22;12256437;19;19925;-85
2023/05/21 12:53:42;;;;;;;;;;;31.20;38.70;;;30.31;40.05;101401.81;12255501;19;19915;-86
2023/05/21 12:57:44;;;;;;;;;;;31.20;38.00;;;30.25;40.08;101406.13;12254369;19;19914;-85
2023/05/21 13:01:50;;;;;;;;;;;31.30;38.70;;;30.25;40.19;101384.59;12257388;19;19925;-86
2023/05/21 13:05:59;;;;;;;;;;;31.30;38.00;;;30.40;39.78;101390.66;12252135;19;19940;-85
2023/05/21 13:10:01;;;;;;;;;;;31.30;38.20;;;30.45;39.84;101402.72;12255615;19;20013;-86
2023/05/21 13:14:03;;;;;;;;;;;31.40;38.30;;;30.48;39.56;101391.53;12254298;19;19915;-85
2023/05/21 13:18:04;;;;;;;;;;;31.40;38.80;;;30.58;39.84;101406.31;12251479;19;20287;-86
2023/05/21 13:22:06;;;;;;;;;;;31.40;38.40;;;30.58;39.72;101390.13;12254701;19;19911;-87
2023/05/21 13:26:08;;;;;;;;;;;31.40;37.20;;;30.58;39.52;101392.81;12250377;19;19923;-86
2023/05/21 13:30:10;;;;;;;;;;;31.50;38.70;;;30.62;39.68;101404.03;12254623;19;19928;-86
2023/05/21 13:34:12;;;;;;;;;;;31.40;38.20;;;30.64;39.55;101400.09;12251547;19;19978;-86
2023/05/21 13:38:13;;;;;;;;;;;31.40;38.20;;;30.62;39.56;101387.84;12252312;19;19953;-86
2023/05/21 13:42:15;;;;;;;;;;;31.40;39.30;;;30.59;39.44;101391.78;12253875;19;19925;-86
2023/05/21 13:46:16;;;;;;;;;;;31.50;38.00;;;30.68;39.40;101389.75;12251098;19;19926;-86
2023/05/21 13:50:17;;;;;;;;;;;31.50;36.00;;;30.59;38.98;101364.00;12254806;19;19913;-85
2023/05/21 13:54:19;;;;;;;;;;;31.50;38.20;;;30.54;38.96;101347.59;12247192;19;19947;-85
2023/05/21 13:58:20;;;;;;;;;;;31.60;38.60;;;30.80;38.94;101390.88;12249532;19;19915;-86
2023/05/21 14:02:22;;;;;;;;;;;31.60;37.00;;;30.70;38.91;101358.00;12250198;19;19926;-86
2023/05/21 14:06:24;;;;;;;;;;;31.60;37.90;;;30.90;39.06;101377.00;12250664;19;20306;-86
2023/05/21 14:10:26;;;;;;;;;;;31.70;37.80;;;30.85;38.87;101342.53;12253890;19;19923;-85
2023/05/21 14:14:27;;;;;;;;;;;31.70;37.70;;;30.98;38.67;101366.03;12250797;19;19919;-88
2023/05/21 14:18:29;;;;;;;;;;;31.80;36.70;;;31.00;38.83;101357.72;12248945;19;20350;-87
2023/05/21 14:22:30;;;;;;;;;;;31.80;35.80;;;30.81;38.74;101352.09;12251274;19;19911;-86
2023/05/21 14:26:32;;;;;;;;;;;31.80;37.70;;;30.82;38.49;101387.97;12247118;19;19915;-86
2023/05/21 14:30:34;;;;;;;;;;;31.70;36.50;;;30.71;38.22;101367.78;12249505;19;19915;-86
2023/05/21 14:34:37;;;;;;;;;;;31.60;36.80;;;30.62;38.12;101366.28;12249517;19;19925;-86
2023/05/21 14:38:39;;;;;;;;;;;31.50;37.40;;;30.63;38.10;101374.19;12248002;19;19910;-86
2023/05/21 14:42:40;;;;;;;;;;;31.50;35.90;;;30.63;38.32;101378.75;12248914;19;19918;-86
2023/05/21 14:46:42;;;;;;;;;;;31.40;36.30;;;30.55;38.08;101366.28;12247263;19;19969;-87
2023/05/21 14:50:43;;;;;;;;;;;31.40;36.10;;;30.53;38.27;101367.50;12247426;19;19919;-86
2023/05/21 14:54:45;;;;;;;;;;;31.40;37.60;;;30.46;38.11;101355.84;12247247;19;20242;-86
2023/05/21 14:58:47;;;;;;;;;;;31.30;36.40;;;30.50;38.18;101357.13;12244305;19;19955;-86
2023/05/21 15:02:48;;;;;;;;;;;31.30;38.00;;;30.58;37.68;101373.13;12247965;19;20265;-86
2023/05/21 15:06:50;;;;;;;;;;;31.30;36.80;;;30.53;37.97;101370.19;12243634;19;19915;-86
2023/05/21 15:10:51;;;;;;;;;;;31.30;35.70;;;30.42;37.81;101364.34;12248441;19;19944;-87
2023/05/21 15:14:53;;;;;;;;;;;31.30;37.20;;;30.33;37.62;101352.06;12253634;19;19926;-86
2023/05/21 15:18:55;;;;;;;;;;;31.20;37.30;;;30.42;37.69;101353.56;12250180;19;19945;-85
2023/05/21 15:22:59;;;;;;;;;;;31.20;37.50;;;30.35;37.50;101355.41;12251660;19;19923;-85
2023/05/21 15:27:01;;;;;;;;;;;31.20;37.10;;;30.30;37.79;101341.69;12251407;19;20000;-86
2023/05/21 15:31:02;;;;;;;;;;;31.10;36.70;;;30.37;37.50;101358.72;12255520;19;19927;-87
2023/05/21 15:35:04;;;;;;;;;;;31.10;35.90;;;30.39;37.42;101348.56;12253140;19;19919;-86
2023/05/21 15:39:05;;;;;;;;;;;31.10;36.90;;;30.37;37.59;101344.41;12248621;19;20563;-85
2023/05/21 15:43:07;;;;;;;;;;;31.10;37.30;;;30.27;37.66;101336.69;12264818;19;19936;-86
2023/05/21 15:47:09;;;;;;;;;;;31.10;36.40;;;30.32;37.50;101350.41;12260126;19;19945;-86
2023/05/21 15:51:11;;;;;;;;;;;31.10;36.40;;;30.19;37.33;101352.97;12261843;19;20265;-86
2023/05/21 15:55:12;;;;;;;;;;;31.00;36.20;;;30.15;37.36;101354.44;12260312;19;20318;-86
2023/05/21 15:59:14;;;;;;;;;;;30.90;36.00;;;30.19;36.95;101359.22;12254216;19;19978;-86
2023/05/21 16:03:16;;;;;;;;;;;30.90;35.20;;;30.13;36.79;101359.19;12262979;19;19915;-86
2023/05/21 16:07:17;;;;;;;;;;;30.90;36.20;;;29.93;36.83;101342.91;12259858;19;19927;-86
2023/05/21 16:11:20;;;;;;;;;;;30.80;36.90;;;30.02;37.17;101335.50;12259099;19;19994;-86
2023/05/21 16:15:21;;;;;;;;;;;30.70;36.60;;;29.93;36.87;101335.66;12256440;19;19933;-86
2023/05/21 16:19:23;;;;;;;;;;;30.70;36.80;;;29.85;36.88;101324.22;12256170;19;19919;-86
2023/05/21 16:23:24;;;;;;;;;;;30.60;35.50;;;29.82;36.83;101328.13;12260853;19;19925;-85
2023/05/21 16:27:25;;;;;;;;;;;30.50;35.60;;;29.68;36.87;101331.75;12263071;19;20369;-86
2023/05/21 16:31:31;;;;;;;;;;;30.50;36.40;;;29.65;36.47;101329.44;12255559;19;20221;-86
2023/05/21 16:35:32;;;;;;;;;;;30.40;36.10;;;29.59;36.62;101328.31;12258665;19;19915;-87
2023/05/21 16:39:34;;;;;;;;;;;30.40;35.90;;;29.49;36.58;101323.31;12255748;19;19927;-86
2023/05/21 16:43:36;;;;;;;;;;;30.30;35.40;;;29.49;36.47;101342.13;12260034;19;19918;-86
2023/05/21 16:47:37;;;;;;;;;;;30.20;36.30;;;29.42;36.63;101341.25;12258973;19;19911;-85
2023/05/21 16:51:39;;;;;;;;;;;30.10;36.10;;;29.37;36.82;101335.59;12260138;19;20358;-86
2023/05/21 16:55:42;;;;;;;;;;;30.10;34.90;;;29.29;36.39;101333.88;12256087;19;19938;-86
2023/05/21 16:59:43;;;;;;;;;;;30.00;34.40;;;29.28;36.55;101342.16;12261372;19;19956;-86
2023/05/21 17:03:44;;;;;;;;;;;30.00;35.40;;;29.21;36.42;101334.00;12257855;19;19926;-85
2023/05/21 17:07:46;;;;;;;;;;;29.90;36.50;;;29.13;36.44;101342.22;12256558;19;19971;-85
2023/05/21 17:11:48;;;;;;;;;;;29.90;35.90;;;29.16;36.54;101349.91;12256623;19;19922;-85
2023/05/21 17:15:50;;;;;;;;;;;29.80;34.60;;;29.11;36.41;101357.69;12255900;19;20330;-85
2023/05/21 17:19:51;;;;;;;;;;;29.80;35.00;;;29.01;36.59;101349.94;12258143;19;19919;-86
2023/05/21 17:23:52;;;;;;;;;;;29.70;35.80;;;28.97;36.45;101354.00;12255996;19;19914;-86
2023/05/21 17:27:54;;;;;;;;;;;29.70;35.80;;;28.86;36.45;101349.13;12259121;19;19918;-86
2023/05/21 17:31:55;;;;;;;;;;;29.60;36.00;;;28.80;36.57;101342.66;12258029;19;19922;-86
2023/05/21 17:35:57;;;;;;;;;;;29.50;36.40;;;28.62;36.06;101331.50;12251947;19;20263;-86
2023/05/21 17:39:58;;;;;;;;;;;29.50;36.40;;;28.65;36.26;101352.63;12257748;19;19940;-85
2023/05/21 17:44:00;;;;;;;;;;;29.40;36.20;;;28.62;36.36;101351.13;12253467;19;19958;-86
2023/05/21 17:48:01;;;;;;;;;;;29.40;36.00;;;28.47;36.63;101333.41;12257185;19;19914;-85
2023/05/21 17:52:03;;;;;;;;;;;29.30;35.80;;;28.44;36.24;101339.97;12256082;19;19915;-86
2023/05/21 17:56:05;;;;;;;;;;;29.20;36.70;;;28.29;36.38;101321.13;12251157;19;19953;-86
2023/05/21 18:00:07;;;;;;;;;;;29.10;36.00;;;28.40;36.39;101349.38;12255962;19;19929;-86
2023/05/21 18:04:15;;;;;;;;;;;29.10;36.00;;;28.38;36.17;101367.53;12247656;19;19911;-86
2023/05/21 18:08:16;;;;;;;;;;;29.10;36.20;;;28.26;36.14;101363.66;12253576;19;19926;-88
2023/05/21 18:12:18;;;;;;;;;;;29.00;36.00;;;28.31;36.20;101382.75;12252712;19;19927;-87